• Join FlightAware (Why Join?)
  • Login
  • US Flag 
07:02AM EST


 

Airport Tracker/Info


-or-


 

Live Flight TrackerFlight Track Log ✈ HL-8251 ✈ 05-May-2013 ✈ LIMC / MXP - RKSI / ICN

Flight Track Log - Related Links

Times and Time Zones

All times are in EDT time to prevent confusion due to time zone crossing. See the HL-8251 flight status page for this flight to view local times or setup timezone preferences in your user account.

Time Position Orientation Groundspeed Altitude Reporting Facility
EDT Latitude Longitude Course Direction KTS MPH feet Rate Location/Type
07:25PM 46.7340 12.6810 64° Northeast 527 606 32,000  Level FlightAware
07:25PM 46.7810 12.8240 64° Northeast 528 608 32,000  Level FlightAware
07:26PM 46.8220 12.9510 65° Northeast 526 605 32,000  Level FlightAware
07:27PM 46.8650 13.0820 64° Northeast 524 603 32,000  Level FlightAware
07:27PM 46.9100 13.2230 65° Northeast 518 596 32,000  Level FlightAware
07:28PM 46.9520 13.3520 64° Northeast 517 595 32,000  Level FlightAware
07:29PM 46.9980 13.4950 65° Northeast 519 597 32,000  Level FlightAware
07:29PM 47.0370 13.6190 65° Northeast 518 596 32,000  Level FlightAware
07:30PM 47.0790 13.7500 65° Northeast 517 595 32,000  Level FlightAware
07:31PM 47.1260 13.8990 65° Northeast 521 600 32,000  Level FlightAware
07:32PM 47.1720 14.0450 65° Northeast 523 602 32,000  Level FlightAware
07:32PM 47.2110 14.1710 65° Northeast 525 604 32,000  Level FlightAware
07:33PM 47.2510 14.2970 65° Northeast 523 602 32,000  Level FlightAware
07:34PM 47.2930 14.4360 66° East 526 605 32,000  Level FlightAware
07:34PM 47.3290 14.5530 66° East 526 605 32,000  Level FlightAware
07:35PM 47.3790 14.7140 65° Northeast 524 603 32,000  Level FlightAware
07:36PM 47.4220 14.8560 66° East 526 605 32,000  Level FlightAware
07:36PM 47.4620 14.9900 66° East 528 608 32,000  Level FlightAware
07:37PM 47.5020 15.1230 66° East 531 611 32,000  Level FlightAware
07:38PM 47.5480 15.2760 66° East 535 616 32,000  Level FlightAware
07:39PM 47.5880 15.4100 66° East 535 616 32,000  Level FlightAware
07:39PM 47.6270 15.5440 67° East 536 617 32,000  Level FlightAware
07:40PM 47.6700 15.6900 66° East 534 615 32,000  Level FlightAware
07:41PM 47.7140 15.8410 67° East 527 606 32,000  Level FlightAware
07:41PM 47.7520 15.9720 67° East 526 605 32,000  Level FlightAware
07:42PM 47.7910 16.1070 67° East 528 608 32,000  Level FlightAware
07:43PM 47.8350 16.2610 67° East 531 611 32,000  Level FlightAware
07:43PM 47.8670 16.3720 67° East 531 611 32,000  Level FlightAware
07:44PM 47.9120 16.5310 67° East 533 613 32,000  Level FlightAware
07:45PM 47.9540 16.6800 67° East 534 615 32,000  Level FlightAware
07:46PM 47.9920 16.8160 67° East 535 616 32,000  Level FlightAware
07:46PM 48.0420 16.9580 62° Northeast 534 615 32,000  Level FlightAware
07:47PM 48.1030 17.0710 51° Northeast 531 611 32,000  Level FlightAware
07:48PM 48.1790 17.1910 46° Northeast 532 612 32,000  Level FlightAware
07:48PM 48.2480 17.3000 46° Northeast 534 615 32,000  Level FlightAware
07:49PM 48.3140 17.4070 47° Northeast 534 615 32,000  Level FlightAware
07:50PM 48.3890 17.5270 47° Northeast 533 613 32,000  Level FlightAware
07:50PM 48.4600 17.6410 47° Northeast 534 615 32,000  Level FlightAware
07:51PM 48.5270 17.7500 47° Northeast 534 615 32,000  Level FlightAware
07:52PM 48.6010 17.8710 47° Northeast 536 617 32,000  Level FlightAware
07:53PM 48.6700 17.9840 47° Northeast 535 616 32,000  Level FlightAware
07:53PM 48.7440 18.1050 47° Northeast 534 615 32,000  Level FlightAware
07:54PM 48.8110 18.2170 48° Northeast 534 615 32,000  Level FlightAware
07:55PM 48.8770 18.3260 47° Northeast 533 613 32,000  Level FlightAware
07:55PM 48.9550 18.4540 47° Northeast 533 613 32,000  Level FlightAware
07:56PM 49.0040 18.5370 48° Northeast 533 613 32,000  Level FlightAware
07:57PM 49.0650 18.6400 48° Northeast 531 611 32,000  Level FlightAware
07:57PM 49.1330 18.7540 48° Northeast 531 611 32,000  Level FlightAware
07:58PM 49.2070 18.8790 48° Northeast 527 606 32,000  Level FlightAware
07:59PM 49.2730 18.9910 48° Northeast 524 603 32,000  Level FlightAware
07:59PM 49.3370 19.1010 48° Northeast 521 600 32,000  Level FlightAware
08:00PM 49.4090 19.2240 48° Northeast 518 596 32,000  Level FlightAware
08:01PM 49.4710 19.3300 48° Northeast 517 595 32,000  Level FlightAware
08:01PM 49.5450 19.4590 48° Northeast 515 593 32,000  Level FlightAware
08:02PM 49.6060 19.5640 48° Northeast 510 587 32,000  Level FlightAware
08:03PM 49.6690 19.6740 48° Northeast 507 583 32,000  Level FlightAware
08:04PM 49.7400 19.7990 49° Northeast 506 582 32,000  Level FlightAware
08:04PM 49.8010 19.9070 49° Northeast 505 581 32,000  Level FlightAware
08:05PM 49.8690 20.0260 48° Northeast 503 579 32,000  Level FlightAware
08:06PM 49.9300 20.1350 49° Northeast 500 575 32,000  Level FlightAware
08:06PM 49.9970 20.2540 49° Northeast 496 571 32,000  Level FlightAware
08:07PM 50.0580 20.3650 49° Northeast 495 570 32,000  Level FlightAware
08:08PM 50.1190 20.4730 49° Northeast 497 572 32,000  Level FlightAware
08:08PM 50.1850 20.5930 49° Northeast 497 572 32,000  Level FlightAware
08:09PM 50.2450 20.7020 49° Northeast 496 571 32,000  Level FlightAware
08:10PM 50.3130 20.8270 50° Northeast 492 566 32,000  Level FlightAware
08:11PM 50.3720 20.9350 49° Northeast 493 567 32,000  Level FlightAware
08:11PM 50.4310 21.0440 50° Northeast 493 567 32,000  Level FlightAware
08:12PM 50.4960 21.1640 50° Northeast 495 570 32,000  Level FlightAware
08:13PM 50.5560 21.2750 50° Northeast 496 571 32,000  Level FlightAware
08:13PM 50.6140 21.3820 49° Northeast 497 572 32,000  Level FlightAware
08:14PM 50.6820 21.5090 50° Northeast 499 574 32,000  Level FlightAware
08:15PM 50.7420 21.6220 50° Northeast 499 574 32,000  Level FlightAware
08:15PM 50.8070 21.7450 50° Northeast 499 574 32,000  Level FlightAware
08:16PM 50.8660 21.8580 50° Northeast 499 574 32,000  Level FlightAware
08:17PM 50.9310 21.9810 50° Northeast 499 574 32,000  Level FlightAware
08:18PM 50.9920 22.0980 50° Northeast 497 572 32,000  Level FlightAware
08:18PM 51.0500 22.2100 50° Northeast 498 573 32,000  Level FlightAware
08:19PM 51.1150 22.3360 51° Northeast 498 573 32,000  Level FlightAware
08:20PM 51.1740 22.4500 50° Northeast 498 573 32,000  Level FlightAware
08:20PM 51.2300 22.5610 51° Northeast 498 573 32,000  Level FlightAware
08:21PM 51.2980 22.6930 50° Northeast 499 574 32,000  Level FlightAware
08:22PM 51.3550 22.8060 51° Northeast 501 577 32,000  Level FlightAware
08:22PM 51.4200 22.9350 51° Northeast 501 577 32,000  Level FlightAware
08:23PM 51.4680 23.0310 51° Northeast 501 577 32,000  Level FlightAware
08:24PM 51.5430 23.1810 51° Northeast 502 578 32,000  Level FlightAware
08:24PM 51.5920 23.2780 51° Northeast 501 577 32,000  Level FlightAware
08:25PM 51.6520 23.4000 52° Northeast 502 578 32,000  Level FlightAware
08:26PM 51.7400 23.5740 51° Northeast 501 577 32,000  Level FlightAware
08:27PM 51.8090 23.6970 48° Northeast 499 574 32,000  Level FlightAware
08:28PM 51.8710 23.8090 48° Northeast 501 577 32,000  Level FlightAware
08:28PM 51.9340 23.9230 48° Northeast 501 577 32,000 120 Level FlightAware
08:29PM 51.9830 24.0120 48° Northeast 504 580 32,200 600 Climbing FlightAware
08:30PM 52.0820 24.1930 48° Northeast 493 567 33,000 420 Climbing FlightAware
08:31PM 52.1550 24.3260 48° Northeast 494 568 33,000  Level FlightAware
08:31PM 52.2140 24.4350 49° Northeast 495 570 33,000  Level FlightAware
08:32PM 52.2750 24.5480 49° Northeast 498 573 33,000  Level FlightAware
08:33PM 52.3310 24.6500 48° Northeast 500 575 33,000  Level FlightAware
08:33PM 52.3970 24.7750 49° Northeast 500 575 33,000  Level FlightAware
08:34PM 52.4500 24.8740 49° Northeast 500 575 33,000  Level FlightAware
08:35PM 52.5100 24.9880 49° Northeast 501 577 33,000  Level FlightAware
08:35PM 52.5620 25.0860 49° Northeast 500 575 33,000  Level FlightAware
08:36PM 52.6300 25.2150 49° Northeast 498 573 33,000  Level FlightAware
08:37PM 52.6990 25.3470 49° Northeast 498 573 33,000  Level FlightAware
08:37PM 52.7650 25.4750 50° Northeast 500 575 33,000  Level FlightAware
08:38PM 52.8250 25.5900 49° Northeast 500 575 33,000  Level FlightAware
08:39PM 52.8950 25.7260 49° Northeast 500 575 33,000  Level FlightAware
08:39PM 52.9530 25.8380 49° Northeast 499 574 33,000  Level FlightAware
08:40PM 53.0130 25.9560 50° Northeast 499 574 33,000  Level FlightAware
08:41PM 53.0780 26.0840 50° Northeast 500 575 33,000  Level FlightAware
08:42PM 53.1390 26.2040 50° Northeast 499 574 33,000  Level FlightAware
08:42PM 53.2070 26.3400 50° Northeast 499 574 33,000  Level FlightAware
08:43PM 53.2650 26.4560 50° Northeast 499 574 33,000  Level FlightAware
08:44PM 53.3240 26.5740 50° Northeast 499 574 33,000  Level FlightAware
08:44PM 53.3860 26.6990 50° Northeast 497 572 33,000  Level FlightAware
08:45PM 53.4350 26.7980 50° Northeast 497 572 33,000  Level FlightAware
08:46PM 53.5130 26.9590 51° Northeast 495 570 33,000  Level FlightAware
08:46PM 53.5730 27.0800 50° Northeast 495 570 33,000  Level FlightAware
08:47PM 53.6380 27.2140 51° Northeast 495 570 33,000  Level FlightAware
08:48PM 53.6930 27.3280 51° Northeast 495 570 33,000  Level FlightAware
08:49PM 53.7500 27.4480 51° Northeast 496 571 33,000  Level FlightAware
08:49PM 53.8160 27.5850 51° Northeast 497 572 33,000  Level FlightAware
08:50PM 53.8750 27.7080 51° Northeast 499 574 33,000  Level FlightAware
08:51PM 53.9370 27.8400 51° Northeast 499 574 33,000  Level FlightAware
08:51PM 53.9960 27.9650 51° Northeast 498 573 33,000  Level FlightAware
08:52PM 54.0540 28.0880 51° Northeast 499 574 33,000  Level FlightAware
08:53PM 54.1030 28.1950 52° Northeast 498 573 33,000  Level FlightAware
08:53PM 54.1760 28.3500 51° Northeast 498 573 33,000  Level FlightAware
08:54PM 54.2330 28.4740 52° Northeast 497 572 33,000  Level FlightAware
08:55PM 54.2950 28.6090 52° Northeast 495 570 33,000  Level FlightAware
08:55PM 54.3410 28.7110 52° Northeast 495 570 33,000  Level FlightAware
08:56PM 54.4000 28.8350 51° Northeast 495 570 33,000  Level FlightAware
08:57PM 54.4700 28.9940 53° Northeast 496 571 33,000  Level FlightAware
08:58PM 54.5310 29.1300 52° Northeast 496 571 33,000  Level FlightAware
08:58PM 54.5790 29.2360 52° Northeast 496 571 33,000  Level FlightAware
08:59PM 54.6270 29.3430 52° Northeast 496 571 33,000  Level FlightAware
09:00PM 54.6750 29.4490 52° Northeast 496 571 33,000  Level FlightAware
09:01PM 54.7350 29.5820 52° Northeast 496 571 33,000  Level FlightAware
09:01PM 54.8250 29.7950 54° Northeast 496 571 33,000  Level FlightAware
09:02PM 54.8800 29.9230 53° Northeast 497 572 33,000  Level FlightAware
09:03PM 54.9440 30.0710 53° Northeast 497 572 33,000  Level FlightAware
09:03PM 55.0000 30.1990 53° Northeast 498 573 33,000  Level FlightAware
09:04PM 55.0620 30.3450 53° Northeast 495 570 33,000  Level FlightAware
09:05PM 55.0990 30.4320 53° Northeast 495 570 33,000  Level FlightAware
09:05PM 55.1540 30.5600 53° Northeast 495 570 33,000  Level FlightAware
09:06PM 55.2130 30.6960 53° Northeast 495 570 33,000  Level FlightAware
09:07PM 55.2600 30.8060 53° Northeast 495 570 33,000  Level FlightAware
09:07PM 55.3070 30.9150 53° Northeast 495 570 33,000  Level FlightAware
09:08PM 55.3530 31.0240 53° Northeast 495 570 33,000  Level FlightAware
09:09PM 55.4000 31.1340 53° Northeast 495 570 33,000  Level FlightAware
09:10PM 55.4590 31.2710 53° Northeast 495 570 33,000  Level FlightAware
09:10PM 55.4950 31.6160 79° East 497 572 33,000  Level FlightAware
09:11PM 55.5350 31.7620 64° Northeast 496 571 33,000  Level FlightAware
09:12PM 55.5790 31.9180 63° Northeast 499 574 33,000  Level FlightAware
09:12PM 55.6200 32.0690 64° Northeast 501 577 33,000  Level FlightAware
09:13PM 55.6700 32.2530 64° Northeast 501 577 33,000  Level FlightAware
09:14PM 55.7080 32.3910 64° Northeast 503 579 33,000  Level FlightAware
09:15PM 55.7510 32.5500 64° Northeast 502 578 33,000  Level FlightAware
09:15PM 55.7940 32.7110 65° Northeast 501 577 33,000  Level FlightAware
09:16PM 55.8330 32.8580 65° Northeast 502 578 33,000  Level FlightAware
09:17PM 55.8820 33.0210 62° Northeast 501 577 33,000  Level FlightAware
09:17PM 55.9270 33.1520 58° Northeast 501 577 33,000  Level FlightAware
09:18PM 55.9700 33.2800 59° Northeast 500 575 33,000  Level FlightAware
09:19PM 56.0270 33.4470 59° Northeast 501 577 33,000  Level FlightAware
09:19PM 56.0810 33.6060 59° Northeast 501 577 33,000  Level FlightAware
09:20PM 56.1310 33.7540 59° Northeast 499 574 33,000  Level FlightAware
09:21PM 56.1780 33.8920 58° Northeast 500 575 33,000  Level FlightAware
09:22PM 56.2330 34.0580 59° Northeast 500 575 33,000  Level FlightAware
09:22PM 56.2800 34.1980 59° Northeast 500 575 33,000  Level FlightAware
09:23PM 56.3340 34.3630 59° Northeast 501 577 33,000  Level FlightAware
09:24PM 56.3800 34.5060 60° Northeast 503 579 33,000  Level FlightAware
09:24PM 56.4250 34.6480 60° Northeast 505 581 33,000  Level FlightAware
09:25PM 56.4780 34.8110 59° Northeast 506 582 33,000  Level FlightAware
09:26PM 56.5220 34.9630 62° Northeast 506 582 33,000  Level FlightAware
09:26PM 56.5630 35.1400 67° East 508 585 33,000  Level FlightAware
09:27PM 56.5980 35.2990 68° East 508 585 33,000  Level FlightAware
09:28PM 56.6300 35.4460 68° East 509 586 33,000  Level FlightAware
09:29PM 56.6720 35.6370 68° East 510 587 33,000  Level FlightAware
09:29PM 56.7060 35.7960 69° East 512 589 33,000  Level FlightAware
09:30PM 56.7450 35.9750 68° East 512 589 33,000  Level FlightAware
09:31PM 56.7790 36.1360 69° East 513 590 33,000  Level FlightAware
09:31PM 56.8120 36.2940 69° East 514 592 33,000  Level FlightAware
09:32PM 56.8510 36.4790 69° East 513 590 33,000  Level FlightAware
09:33PM 56.8850 36.6410 69° East 510 587 33,000  Level FlightAware
09:33PM 56.9180 36.7970 69° East 508 585 33,000  Level FlightAware
09:34PM 56.9560 36.9780 69° East 510 587 33,000  Level FlightAware
09:35PM 56.9910 37.1420 69° East 510 587 33,000  Level FlightAware
09:36PM 57.0280 37.3210 69° East 509 586 33,000  Level FlightAware
09:36PM 57.0610 37.4820 69° East 509 586 33,000  Level FlightAware
09:37PM 57.0950 37.6450 69° East 510 587 33,000  Level FlightAware
09:38PM 57.1480 37.8090 59° Northeast 512 589 33,000  Level FlightAware
09:38PM 57.2060 37.9490 53° Northeast 514 592 33,000  Level FlightAware
09:39PM 57.2640 38.0870 52° Northeast 515 593 33,000  Level FlightAware
09:40PM 57.3300 38.2460 52° Northeast 515 593 33,000  Level FlightAware
09:40PM 57.3870 38.3800 52° Northeast 514 592 33,000  Level FlightAware
09:41PM 57.4560 38.5380 51° Northeast 508 585 33,000  Level FlightAware
09:42PM 57.5130 38.6740 52° Northeast 507 583 33,000  Level FlightAware
09:43PM 57.5780 38.8280 52° Northeast 507 583 33,000  Level FlightAware
09:43PM 57.6360 38.9660 52° Northeast 506 582 33,000  Level FlightAware
09:44PM 57.6920 39.1010 52° Northeast 506 582 33,000  Level FlightAware
09:45PM 57.7520 39.2500 53° Northeast 505 581 33,000  Level FlightAware
09:45PM 57.7960 39.4170 64° Northeast 508 585 33,000  Level FlightAware
09:46PM 57.8350 39.5990 68° East 507 583 33,000  Level FlightAware
09:47PM 57.8700 39.7630 68° East 508 585 33,000  Level FlightAware
09:47PM 57.9040 39.9240 68° East 509 586 33,000  Level FlightAware
09:48PM 57.9420 40.1100 69° East 510 587 33,000  Level FlightAware
09:49PM 57.9770 40.2770 68° East 511 588 33,000  Level FlightAware
09:50PM 58.0120 40.4480 69° East 512 589 33,000  Level FlightAware
09:50PM 58.0490 40.6300 69° East 513 590 33,000  Level FlightAware
09:51PM 58.0750 40.7630 70° East 514 592 33,000  Level FlightAware
09:52PM 58.1200 40.9880 69° East 515 593 33,000  Level FlightAware
09:52PM 58.1520 41.1490 69° East 514 592 33,000  Level FlightAware
09:53PM 58.1850 41.3170 70° East 516 594 33,000  Level FlightAware
09:54PM 58.2250 41.5280 70° East 515 593 33,000  Level FlightAware
09:54PM 58.2580 41.6980 70° East 516 594 33,000  Level FlightAware
09:55PM 58.2940 41.8850 70° East 516 594 33,000  Level FlightAware
09:56PM 58.3260 42.0580 71° East 517 595 33,000  Level FlightAware
09:56PM 58.3580 42.2300 70° East 516 594 33,000  Level FlightAware
09:57PM 58.3910 42.4050 70° East 516 594 33,000  Level FlightAware
09:58PM 58.4240 42.5870 71° East 516 594 33,000  Level FlightAware
09:59PM 58.4600 42.7820 70° East 518 596 33,000  Level FlightAware
09:59PM 58.4910 42.9580 71° East 519 597 33,000  Level FlightAware
10:00PM 58.5250 43.1460 71° East 520 598 33,000  Level FlightAware
10:01PM 58.5570 43.3290 71° East 521 600 33,000  Level FlightAware
10:01PM 58.5880 43.5040 71° East 521 600 33,000  Level FlightAware
10:02PM 58.6060 43.6060 71° East 521 600 33,000  Level FlightAware
10:03PM 58.6530 43.8830 72° East 523 602 33,000  Level FlightAware
10:04PM 58.6790 44.0330 72° East 523 602 33,000  Level FlightAware
10:04PM 58.7070 44.2040 72° East 524 603 33,000  Level FlightAware
10:05PM 58.7570 44.5030 72° East 524 603 33,000  Level FlightAware
10:06PM 58.7860 44.6820 73° East 526 605 33,000  Level FlightAware
10:07PM 58.8140 44.8520 72° East 528 608 33,000  Level FlightAware
10:07PM 58.8400 45.0130 73° East 527 606 33,000  Level FlightAware
10:08PM 58.8710 45.2090 73° East 528 608 33,000  Level FlightAware
10:09PM 58.8980 45.3820 73° East 529 609 33,000  Level FlightAware
10:10PM 58.9310 45.5950 73° East 530 610 33,000  Level FlightAware
10:10PM 58.9620 45.7960 73° East 530 610 33,000  Level FlightAware
10:11PM 59.0040 46.0640 73° East 530 610 33,000  Level FlightAware
10:12PM 59.0280 46.2190 73° East 530 610 33,000  Level FlightAware
10:13PM 59.0520 46.3740 73° East 530 610 33,000  Level FlightAware
10:13PM 59.0770 46.5290 73° East 530 610 33,000  Level FlightAware
10:14PM 59.1070 46.7230 73° East 530 610 33,000  Level FlightAware
10:15PM 59.1310 46.8790 73° East 530 610 33,000  Level FlightAware
10:15PM 59.1560 47.0340 72° East 530 610 33,000  Level FlightAware
10:16PM 59.1800 47.1900 73° East 530 610 33,000  Level FlightAware
10:17PM 59.2040 47.3450 73° East 530 610 33,000  Level FlightAware
10:17PM 59.2290 47.5010 73° East 530 610 33,000  Level FlightAware
10:18PM 59.2590 47.6960 73° East 530 610 33,000  Level FlightAware
10:19PM 59.2830 47.8520 73° East 530 610 33,000  Level FlightAware
10:20PM 59.3080 48.0080 73° East 530 610 33,000  Level FlightAware
10:20PM 59.3320 48.1640 73° East 530 610 33,000  Level FlightAware
10:23PM 59.3777 48.5756 78° East  Level Estimated
10:24PM 59.3971 48.7549 78° East  Level Estimated
10:25PM 59.4163 48.9345 78° East  Level Estimated
10:26PM 59.4353 49.1142 78° East  Level Estimated
10:27PM 59.4540 49.2941 78° East  Level Estimated
10:28PM 59.4725 49.4742 79° East  Level Estimated
10:28PM 59.6040 50.6800 79° East 529 609 33,000  Level FlightAware
10:28PM 59.6300 50.9200 78° East 526 605 33,000  Level FlightAware
10:29PM 59.6530 51.1320 78° East 524 603 33,000  Level FlightAware
10:30PM 59.6750 51.3430 78° East 525 604 33,000  Level FlightAware
10:31PM 59.6940 51.5260 78° East 523 602 33,000  Level FlightAware
10:31PM 59.7110 51.6940 79° East 523 602 33,000  Level FlightAware
10:32PM 59.7330 51.9090 78° East 519 597 33,000  Level FlightAware
10:33PM 59.7540 52.1190 79° East 517 595 33,000  Level FlightAware
10:33PM 59.7700 52.3260 81° East 519 597 33,000  Level FlightAware
10:35PM 59.7920 52.6450 82° East 516 594 33,000  Level FlightAware
10:35PM 59.8070 52.8440 81° East 515 593 33,000  Level FlightAware
10:36PM 59.8220 53.0560 82° East 516 594 33,000  Level FlightAware
10:37PM 59.8320 53.2040 82° East 514 592 33,000  Level FlightAware
10:37PM 59.8470 53.4250 82° East 513 590 33,000  Level FlightAware
10:38PM 59.8610 53.6270 82° East 512 589 33,000  Level FlightAware
10:39PM 59.8770 53.8770 83° East 512 589 33,000  Level FlightAware
10:40PM 59.8890 54.0690 83° East 510 587 33,000  Level FlightAware
10:40PM 59.9000 54.2530 83° East 508 585 33,000  Level FlightAware
10:41PM 59.9130 54.4680 83° East 509 586 33,000  Level FlightAware
10:42PM 59.9240 54.6600 83° East 510 587 33,000  Level FlightAware
10:42PM 59.9350 54.8440 83° East 511 588 33,000  Level FlightAware
10:43PM 59.9460 55.0540 84° East 513 590 33,000  Level FlightAware
10:44PM 59.9580 55.2700 84° East 512 589 33,000  Level FlightAware
10:45PM 59.9670 55.4510 84° East 512 589 33,000  Level FlightAware
10:45PM 59.9780 55.6680 84° East 513 590 33,000  Level FlightAware
10:46PM 59.9860 55.8230 84° East 513 590 33,000  Level FlightAware
10:47PM 59.9960 56.0340 84° East 510 587 33,000  Level FlightAware
10:47PM 60.0040 56.2170 85° East 508 585 33,000  Level FlightAware
10:49PM 60.0200 56.5670 85° East 503 579 33,000  Level FlightAware
10:49PM 60.0280 56.7570 85° East 502 578 33,000  Level FlightAware
10:50PM 60.0360 56.9720 86° East 502 578 33,000  Level FlightAware
10:51PM 60.0440 57.1690 85° East 500 575 33,000  Level FlightAware
10:52PM 60.0530 57.4050 86° East 498 573 33,000  Level FlightAware
10:52PM 60.0600 57.6090 86° East 498 573 33,000  Level FlightAware
10:53PM 60.0660 57.7850 86° East 498 573 33,000  Level FlightAware
10:54PM 60.0720 57.9470 86° East 497 572 33,000  Level FlightAware
10:55PM 60.0820 58.2380 86° East 497 572 33,000  Level FlightAware
10:55PM 60.0880 58.4310 86° East 500 575 33,000  Level FlightAware
10:56PM 60.0930 58.6210 87° East 500 575 33,000  Level FlightAware
10:57PM 60.0980 58.8120 87° East 504 580 33,000  Level FlightAware
10:57PM 60.1030 59.0190 87° East 505 581 33,000  Level FlightAware
10:58PM 60.1080 59.2290 87° East 510 587 33,000  Level FlightAware
11:00PM 60.1190 59.7750 87° East 504 580 33,000  Level FlightAware
11:01PM 60.1220 59.9420 88° East 505 581 33,000  Level FlightAware
11:01PM 60.1260 60.1710 88° East 508 585 33,000  Level FlightAware
11:02PM 60.1290 60.3660 88° East 509 586 33,000  Level FlightAware
11:03PM 60.1320 60.6050 88° East 508 585 33,000  Level FlightAware
11:04PM 60.1350 60.7650 88° East 508 585 33,000  Level FlightAware
11:04PM 60.1380 60.9250 88° East 508 585 33,000  Level FlightAware
11:05PM 60.1410 61.1260 88° East 508 585 33,000  Level FlightAware
11:06PM 60.1440 61.2860 88° East 508 585 33,000  Level FlightAware
11:06PM 60.1460 61.4070 88° East 508 585 33,000  Level FlightAware
11:07PM 60.1490 61.5670 88° East 508 585 33,000  Level FlightAware
11:08PM 60.1410 61.9260 92° East 502 578 33,000  Level FlightAware
11:08PM 60.1420 62.0990 89° East 502 578 33,000  Level FlightAware
11:09PM 60.1440 62.2580 88° East 502 578 33,000  Level FlightAware
11:10PM 60.1410 62.5730 91° East 498 573 33,000  Level FlightAware
11:11PM 60.1410 62.7310 90° East 498 573 33,000  Level FlightAware
11:11PM 60.1410 62.8880 90° East 498 573 33,000  Level FlightAware
11:12PM 60.1370 63.2270 91° East 503 579 33,000  Level FlightAware
11:13PM 60.1360 63.4480 90° East 500 575 33,000  Level FlightAware
11:14PM 60.1330 63.6980 91° East 498 573 33,000  Level FlightAware
11:15PM 60.1300 63.9440 91° East 497 572 33,000  Level FlightAware
11:16PM 60.1280 64.1270 91° East 498 573 33,000  Level FlightAware
11:16PM 60.1250 64.3450 91° East 497 572 33,000  Level FlightAware
11:17PM 60.1220 64.5170 92° East 498 573 33,000  Level FlightAware
11:18PM 60.1190 64.7090 92° East 504 580 33,000  Level FlightAware
11:18PM 60.1160 64.8850 92° East 506 582 33,000  Level FlightAware
11:19PM 60.1050 65.1110 95° East 509 586 33,000  Level FlightAware
11:20PM 60.0970 65.2750 96° East 504 580 33,000  Level FlightAware
11:21PM 60.0860 65.4960 96° East 500 575 33,000  Level FlightAware
11:22PM 60.0740 65.7740 95° East 497 572 33,000  Level FlightAware
11:22PM 60.0630 65.9720 96° East 500 575 33,000  Level FlightAware
11:23PM 60.0540 66.1490 96° East 499 574 33,000  Level FlightAware
11:24PM 60.0390 66.4380 96° East 497 572 33,000  Level FlightAware
11:25PM 60.0250 66.6780 97° East 497 572 33,000  Level FlightAware
11:25PM 60.0170 66.8250 96° East 497 572 33,000  Level FlightAware
11:26PM 60.0070 67.0200 96° East 497 572 33,000  Level FlightAware
11:27PM 59.9920 67.2340 98° East 496 571 33,000  Level FlightAware
11:28PM 59.9820 67.4010 97° East 496 571 33,000  Level FlightAware
11:28PM 59.9690 67.6010 97° East 492 566 33,000  Level FlightAware
11:29PM 59.9570 67.7850 97° East 492 566 33,000  Level FlightAware
11:30PM 59.9480 67.9300 97° East 492 566 33,000  Level FlightAware
11:30PM 59.9360 68.1220 97° East 492 566 33,000  Level FlightAware
11:31PM 59.9130 68.4290 98° East 490 564 33,000  Level FlightAware
11:32PM 59.9030 68.5810 97° East 490 564 33,000  Level FlightAware
11:33PM 59.8920 68.7330 98° East 490 564 33,000  Level FlightAware
11:33PM 59.8810 68.8850 98° East 490 564 33,000  Level FlightAware
11:35PM 59.8370 69.4420 99° East 488 562 33,000  Level FlightAware
11:36PM 59.8230 69.6130 99° East 487 560 33,000  Level FlightAware
11:36PM 59.8090 69.7880 99° East 485 558 33,000  Level FlightAware
11:37PM 59.7930 69.9850 99° East 485 558 33,000  Level FlightAware
11:38PM 59.7780 70.1620 99° East 486 559 33,000  Level FlightAware
11:39PM 59.7630 70.3430 99° East 486 559 33,000  Level FlightAware
11:39PM 59.7510 70.4930 99° East 486 559 33,000  Level FlightAware
11:41PM 59.7070 70.9650 100° East 485 558 33,000  Level FlightAware
11:42PM 59.6910 71.1480 100° East 487 560 33,000  Level FlightAware
11:42PM 59.6740 71.3230 101° East 488 562 33,000  Level FlightAware
11:43PM 59.6550 71.5210 101° East 488 562 33,000  Level FlightAware
11:44PM 59.6390 71.6960 100° East 487 560 33,000  Level FlightAware
11:44PM 59.6210 71.8800 101° East 487 560 33,000  Level FlightAware
11:45PM 59.6030 72.0600 101° East 484 557 33,000  Level FlightAware
11:46PM 59.5820 72.2700 101° East 479 551 33,000  Level FlightAware
11:47PM 59.5530 72.5440 102° East 477 549 33,000  Level FlightAware
11:48PM 59.5380 72.6970 101° East 477 549 33,000  Level FlightAware
11:49PM 59.5100 72.9500 102° East 477 549 33,000  Level FlightAware
11:50PM 59.4850 73.1830 102° East 477 549 33,000  Level FlightAware
11:50PM 59.4670 73.3470 102° East 476 548 33,000  Level FlightAware
11:51PM 59.4520 73.4920 101° East 476 548 33,000  Level FlightAware
11:52PM 59.4360 73.6360 102° East 476 548 33,000  Level FlightAware
11:52PM 59.4170 73.8160 102° East 476 548 33,000  Level FlightAware
11:53PM 59.4010 73.9590 102° East 476 548 33,000  Level FlightAware
11:54PM 59.3850 74.1030 102° East 476 548 33,000  Level FlightAware
11:54PM 59.3700 74.2470 101° East 476 548 33,000  Level FlightAware
11:55PM 59.3540 74.3910 102° East 476 548 33,000  Level FlightAware
11:56PM 59.3350 74.5700 102° East 476 548 33,000  Level FlightAware
11:57PM 59.3190 74.7140 102° East 476 548 33,000  Level FlightAware
11:57PM 59.3040 74.8570 102° East 476 548 33,000  Level FlightAware
11:58PM 59.2880 75.0010 102° East 476 548 33,000  Level FlightAware
11:59PM 59.2720 75.1440 102° East 476 548 33,000  Level FlightAware
11:59PM 59.2530 75.3230 102° East 476 548 33,000  Level FlightAware
12:02AM 59.2154 75.7054 101° East  Level Estimated
12:03AM 59.1973 75.8843 101° East  Level Estimated
12:04AM 59.1791 76.0630 101° East  Level Estimated
12:05AM 59.1605 76.2416 101° East  Level Estimated
12:06AM 59.1418 76.4199 102° East  Level Estimated
12:07AM 59.1228 76.5981 102° East  Level Estimated
12:08AM 59.1035 76.7760 102° East  Level Estimated
12:09AM 59.0840 76.9538 102° East  Level Estimated
12:10AM 59.0643 77.1314 102° East  Level Estimated
12:11AM 59.0443 77.3087 102° East  Level Estimated
12:12AM 59.0241 77.4859 102° East  Level Estimated
12:13AM 59.0036 77.6628 103° East  Level Estimated
12:14AM 58.9829 77.8395 103° East  Level Estimated
12:15AM 58.9620 78.0160 103° East  Level Estimated
12:16AM 58.9408 78.1923 103° East  Level Estimated
12:17AM 58.9194 78.3684 103° East  Level Estimated
12:18AM 58.8977 78.5443 103° East  Level Estimated
12:19AM 58.8758 78.7199 103° East  Level Estimated
12:20AM 58.8537 78.8953 104° East  Level Estimated
12:21AM 58.8313 79.0705 104° East  Level Estimated
12:22AM 58.8087 79.2454 104° East  Level Estimated
12:23AM 58.7858 79.4202 104° East  Level Estimated
12:24AM 58.7627 79.5947 104° East  Level Estimated
12:25AM 58.7394 79.7689 104° East  Level Estimated
12:26AM 58.7159 79.9430 105° East  Level Estimated
12:27AM 58.6921 80.1168 105° East  Level Estimated
12:28AM 58.6680 80.2903 105° East  Level Estimated
12:29AM 58.6438 80.4636 105° East  Level Estimated
12:30AM 58.6193 80.6367 105° East  Level Estimated
12:31AM 58.5946 80.8095 105° East  Level Estimated
12:32AM 58.5696 80.9821 105° East  Level Estimated
12:33AM 58.5444 81.1545 106° East  Level Estimated
12:34AM 58.5190 81.3266 106° East  Level Estimated
12:35AM 58.4934 81.4984 106° East  Level Estimated
12:36AM 58.4675 81.6700 106° East  Level Estimated
12:37AM 58.4414 81.8413 106° East  Level Estimated
12:38AM 58.4151 82.0124 106° East  Level Estimated
12:39AM 58.3885 82.1832 106° East  Level Estimated
12:40AM 58.3617 82.3538 107° East  Level Estimated
12:41AM 58.3347 82.5241 107° East  Level Estimated
12:42AM 58.3075 82.6941 107° East  Level Estimated
12:43AM 58.2800 82.8639 107° East  Level Estimated
12:44AM 58.2523 83.0334 107° East  Level Estimated
12:45AM 58.2244 83.2027 107° East  Level Estimated
12:46AM 58.1963 83.3717 107° East  Level Estimated
12:47AM 58.1679 83.5404 108° East  Level Estimated
12:48AM 58.1393 83.7088 108° East  Level Estimated
12:49AM 58.1105 83.8770 108° East  Level Estimated
12:50AM 58.0815 84.0449 108° East  Level Estimated
12:51AM 58.0523 84.2125 108° East  Level Estimated
12:52AM 58.0228 84.3799 108° East  Level Estimated
12:53AM 57.9931 84.5470 108° East  Level Estimated
12:54AM 57.9632 84.7138 109° East  Level Estimated
12:55AM 57.9331 84.8803 109° East  Level Estimated
12:56AM 57.9028 85.0465 109° East  Level Estimated
12:57AM 57.8722 85.2125 109° East  Level Estimated
12:58AM 57.8414 85.3781 109° East  Level Estimated
12:59AM 57.8105 85.5435 109° East  Level Estimated
01:00AM 57.7793 85.7086 109° East  Level Estimated
01:01AM 57.7478 85.8735 110° East  Level Estimated
01:02AM 57.7162 86.0380 110° East  Level Estimated
01:03AM 57.6844 86.2022 110° East  Level Estimated
01:04AM 57.6523 86.3662 110° East  Level Estimated
01:05AM 57.6200 86.5299 110° East  Level Estimated
01:06AM 57.5876 86.6932 110° East  Level Estimated
01:07AM 57.5549 86.8563 110° East  Level Estimated
01:07AM 56.2990 91.5340 111° Southeast 490 564 33,000  Level FlightAware
01:08AM 57.5220 87.0191 111° Southeast  Level Estimated
01:08AM 56.2450 91.7200 118° Southeast 489 563 33,000  Level FlightAware
01:09AM 56.2050 91.8620 117° Southeast 482 555 33,000  Level FlightAware
01:10AM 56.1580 92.0230 118° Southeast 482 555 33,000  Level FlightAware
01:10AM 56.1190 92.1530 118° Southeast 482 555 33,000  Level FlightAware
01:11AM 56.0790 92.2920 117° Southeast 479 551 33,000  Level FlightAware
01:12AM 56.0340 92.4430 118° Southeast 479 551 33,000  Level FlightAware
01:13AM 55.9740 92.6450 118° Southeast 480 552 33,000  Level FlightAware
01:13AM 55.9330 92.7830 118° Southeast 480 552 33,000  Level FlightAware
01:14AM 55.8930 92.9160 118° Southeast 482 555 33,000  Level FlightAware
01:15AM 55.8490 93.0650 118° Southeast 482 555 33,000  Level FlightAware
01:15AM 55.8130 93.1850 118° Southeast 482 555 33,000  Level FlightAware
01:16AM 55.7770 93.3040 118° Southeast 482 555 33,000  Level FlightAware
01:17AM 55.7420 93.4230 118° Southeast 482 555 33,000  Level FlightAware
01:17AM 55.7060 93.5410 118° Southeast 482 555 33,000 1,380 Level FlightAware
01:18AM 55.6110 93.8240 121° Southeast 498 573 35,000 540 Climbing FlightAware
01:21AM 55.5167 94.1651 116° Southeast  Level Estimated
01:21AM 55.4160 94.4270 116° Southeast 497 572 35,000  Level FlightAware
01:22AM 55.3750 94.5550 119° Southeast 497 572 35,000  Level FlightAware
01:22AM 55.3190 94.7260 120° Southeast 497 572 35,000  Level FlightAware
01:23AM 55.2780 94.8550 119° Southeast 497 572 35,000  Level FlightAware
01:24AM 55.1940 95.1120 120° Southeast 497 572 35,000  Level FlightAware
01:25AM 55.1550 95.2310 120° Southeast 497 572 35,000  Level FlightAware
01:26AM 55.1160 95.3490 120° Southeast 497 572 35,000  Level FlightAware
01:26AM 55.0760 95.4670 121° Southeast 497 572 35,000  Level FlightAware
01:27AM 55.0370 95.5860 120° Southeast 497 572 35,000  Level FlightAware
01:28AM 54.9880 95.7330 120° Southeast 497 572 35,000  Level FlightAware
01:28AM 54.9490 95.8510 120° Southeast 497 572 35,000  Level FlightAware
01:29AM 54.9100 95.9690 120° Southeast 497 572 35,000  Level FlightAware
01:30AM 54.8710 96.0870 120° Southeast 497 572 35,000  Level FlightAware
01:31AM 54.8220 96.2340 120° Southeast 497 572 35,000  Level FlightAware
01:31AM 54.7830 96.3510 120° Southeast 497 572 35,000  Level FlightAware
01:32AM 54.7440 96.4680 120° Southeast 497 572 35,000  Level FlightAware
01:33AM 54.7050 96.5860 120° Southeast 497 572 35,000  Level FlightAware
01:33AM 54.6660 96.7030 120° Southeast 497 572 35,000 -180 Level FlightAware
01:36AM 54.5681 97.0179 118° Southeast  Level Estimated
01:37AM 54.5237 97.1594 118° Southeast  Level Estimated
01:38AM 54.4791 97.3007 118° Southeast  Level Estimated
01:39AM 54.4343 97.4416 119° Southeast  Level Estimated
01:40AM 54.3894 97.5823 119° Southeast  Level Estimated
01:41AM 54.3443 97.7226 119° Southeast  Level Estimated
01:42AM 54.2990 97.8626 119° Southeast  Level Estimated
01:43AM 54.2536 98.0023 119° Southeast  Level Estimated
01:44AM 54.2080 98.1417 119° Southeast  Level Estimated
01:45AM 54.1623 98.2808 119° Southeast  Level Estimated
01:46AM 54.1164 98.4196 119° Southeast  Level Estimated
01:47AM 54.0703 98.5580 120° Southeast  Level Estimated
01:48AM 54.0241 98.6962 120° Southeast  Level Estimated
01:49AM 53.9777 98.8341 120° Southeast  Level Estimated
01:50AM 53.9312 98.9716 120° Southeast  Level Estimated
01:51AM 53.8845 99.1089 120° Southeast  Level Estimated
01:52AM 53.8377 99.2458 120° Southeast  Level Estimated
01:53AM 53.7907 99.3824 120° Southeast  Level Estimated
01:54AM 53.7435 99.5188 120° Southeast  Level Estimated
01:55AM 53.6962 99.6548 120° Southeast  Level Estimated
01:56AM 53.6488 99.7905 121° Southeast  Level Estimated
01:57AM 53.6012 99.9259 121° Southeast  Level Estimated
01:58AM 53.5534 100.0610 121° Southeast  Level Estimated
01:59AM 53.5055 100.1958 121° Southeast  Level Estimated
02:00AM 53.4574 100.3303 121° Southeast  Level Estimated
02:01AM 53.4092 100.4645 121° Southeast  Level Estimated
02:02AM 53.3608 100.5984 121° Southeast  Level Estimated
02:03AM 53.3123 100.7319 121° Southeast  Level Estimated
02:04AM 53.2636 100.8652 121° Southeast  Level Estimated
02:05AM 53.2148 100.9982 121° Southeast  Level Estimated
02:06AM 53.1658 101.1309 122° Southeast  Level Estimated
02:07AM 53.1167 101.2632 122° Southeast  Level Estimated
02:08AM 53.0675 101.3953 122° Southeast  Level Estimated
02:09AM 53.0181 101.5270 122° Southeast  Level Estimated
02:10AM 52.9685 101.6585 122° Southeast  Level Estimated
02:11AM 52.9188 101.7897 122° Southeast  Level Estimated
02:12AM 52.8690 101.9205 122° Southeast  Level Estimated
02:13AM 52.8190 102.0511 122° Southeast  Level Estimated
02:14AM 52.7689 102.1814 122° Southeast  Level Estimated
02:15AM 52.7186 102.3113 123° Southeast  Level Estimated
02:16AM 52.6682 102.4410 123° Southeast  Level Estimated
02:17AM 52.6176 102.5703 123° Southeast  Level Estimated
02:18AM 52.5670 102.6994 123° Southeast  Level Estimated
02:19AM 52.5161 102.8281 123° Southeast  Level Estimated
02:20AM 52.4651 102.9566 123° Southeast  Level Estimated
02:21AM 52.4140 103.0848 123° Southeast  Level Estimated
02:22AM 52.3628 103.2126 123° Southeast  Level Estimated
02:23AM 52.3114 103.3402 123° Southeast  Level Estimated
02:24AM 52.2599 103.4675 123° Southeast  Level Estimated
02:25AM 52.2082 103.5945 124° Southeast  Level Estimated
02:26AM 52.1564 103.7212 124° Southeast  Level Estimated
02:27AM 52.1045 103.8475 124° Southeast  Level Estimated
02:28AM 52.0524 103.9736 124° Southeast  Level Estimated
02:29AM 52.0002 104.0994 124° Southeast  Level Estimated
02:30AM 51.9479 104.2250 124° Southeast  Level Estimated
02:31AM 51.8954 104.3502 124° Southeast  Level Estimated
02:32AM 51.8428 104.4751 124° Southeast  Level Estimated
02:33AM 51.7901 104.5997 124° Southeast  Level Estimated
02:34AM 51.7372 104.7241 124° Southeast  Level Estimated
02:35AM 51.6842 104.8481 125° Southeast  Level Estimated
02:36AM 51.6311 104.9719 125° Southeast  Level Estimated
02:37AM 51.5779 105.0953 125° Southeast  Level Estimated
02:38AM 51.5245 105.2185 125° Southeast  Level Estimated
02:39AM 51.4710 105.3414 125° Southeast  Level Estimated
02:40AM 51.4174 105.4640 125° Southeast  Level Estimated
02:41AM 51.3636 105.5863 125° Southeast  Level Estimated
02:42AM 51.3097 105.7083 125° Southeast  Level Estimated
02:43AM 51.2557 105.8301 125° Southeast  Level Estimated
02:44AM 51.2015 105.9515 125° Southeast  Level Estimated
02:45AM 51.1473 106.0727 125° Southeast  Level Estimated
02:46AM 51.0928 106.1936 126° Southeast  Level Estimated
02:47AM 51.0383 106.3142 126° Southeast  Level Estimated
02:48AM 50.9837 106.4345 126° Southeast  Level Estimated
02:49AM 50.9289 106.5545 126° Southeast  Level Estimated
02:50AM 50.8740 106.6743 126° Southeast  Level Estimated
02:51AM 50.8190 106.7937 126° Southeast  Level Estimated
02:52AM 50.7639 106.9129 126° Southeast  Level Estimated
02:53AM 50.7086 107.0318 126° Southeast  Level Estimated
02:54AM 50.6533 107.1505 126° Southeast  Level Estimated
02:55AM 50.5978 107.2688 126° Southeast  Level Estimated
02:56AM 50.5421 107.3869 127° Southeast  Level Estimated
02:57AM 50.4864 107.5046 127° Southeast  Level Estimated
02:58AM 50.4305 107.6222 127° Southeast  Level Estimated
02:59AM 50.3746 107.7394 127° Southeast  Level Estimated
03:00AM 50.3185 107.8564 127° Southeast  Level Estimated
03:01AM 50.2623 107.9730 127° Southeast  Level Estimated
03:02AM 50.2060 108.0894 127° Southeast  Level Estimated
03:03AM 50.1495 108.2056 127° Southeast  Level Estimated
03:04AM 50.0930 108.3214 127° Southeast  Level Estimated
03:05AM 50.0363 108.4370 127° Southeast  Level Estimated
03:06AM 49.9795 108.5523 127° Southeast  Level Estimated
03:07AM 49.9226 108.6674 128° Southeast  Level Estimated
03:08AM 49.8656 108.7821 128° Southeast  Level Estimated
03:09AM 49.8085 108.8966 128° Southeast  Level Estimated
03:10AM 49.7512 109.0108 128° Southeast  Level Estimated
03:11AM 49.6939 109.1248 128° Southeast  Level Estimated
03:12AM 49.6364 109.2385 128° Southeast  Level Estimated
03:13AM 49.5788 109.3519 128° Southeast  Level Estimated
03:14AM 49.5212 109.4650 128° Southeast  Level Estimated
03:15AM 49.4634 109.5779 128° Southeast  Level Estimated
03:16AM 49.4055 109.6905 128° Southeast  Level Estimated
03:17AM 49.3475 109.8029 128° Southeast  Level Estimated
03:18AM 49.2893 109.9150 128° Southeast  Level Estimated
03:19AM 49.2311 110.0268 129° Southeast  Level Estimated
03:20AM 49.1728 110.1384 129° Southeast  Level Estimated
03:21AM 49.1143 110.2497 129° Southeast  Level Estimated
03:22AM 49.0558 110.3607 129° Southeast  Level Estimated
03:23AM 48.9971 110.4715 129° Southeast  Level Estimated
03:24AM 48.9384 110.5820 129° Southeast  Level Estimated
03:25AM 48.8795 110.6922 129° Southeast  Level Estimated
03:26AM 48.8205 110.8022 129° Southeast  Level Estimated
03:27AM 48.7615 110.9119 129° Southeast  Level Estimated
03:28AM 48.7023 111.0214 129° Southeast  Level Estimated
03:29AM 48.6430 111.1306 129° Southeast  Level Estimated
03:30AM 48.5836 111.2396 129° Southeast  Level Estimated
03:31AM 48.5241 111.3483 130° Southeast  Level Estimated
03:32AM 48.4645 111.4568 130° Southeast  Level Estimated
03:33AM 48.4048 111.5650 130° Southeast  Level Estimated
03:34AM 48.3450 111.6729 130° Southeast  Level Estimated
03:35AM 48.2851 111.7806 130° Southeast  Level Estimated
03:36AM 48.2251 111.8880 130° Southeast  Level Estimated
03:37AM 48.1650 111.9952 130° Southeast  Level Estimated
03:38AM 48.1049 112.1021 130° Southeast  Level Estimated
03:39AM 48.0446 112.2088 130° Southeast  Level Estimated
03:40AM 47.9842 112.3152 130° Southeast  Level Estimated
03:41AM 47.9237 112.4214 130° Southeast  Level Estimated
03:42AM 47.8631 112.5274 130° Southeast  Level Estimated
03:43AM 47.8024 112.6331 131° Southeast  Level Estimated
03:44AM 47.7416 112.7385 131° Southeast  Level Estimated
03:45AM 47.6807 112.8437 131° Southeast  Level Estimated
03:46AM 47.6198 112.9486 131° Southeast  Level Estimated
03:47AM 47.5587 113.0534 131° Southeast  Level Estimated
03:48AM 47.4975 113.1578 131° Southeast  Level Estimated
03:49AM 47.4363 113.2620 131° Southeast  Level Estimated
03:50AM 47.3749 113.3660 131° Southeast  Level Estimated
03:51AM 47.3135 113.4697 131° Southeast  Level Estimated
03:52AM 47.2519 113.5732 131° Southeast  Level Estimated
03:53AM 47.1903 113.6765 131° Southeast  Level Estimated
03:54AM 47.1286 113.7795 131° Southeast  Level Estimated
03:55AM 47.0668 113.8823 131° Southeast  Level Estimated
03:56AM 47.0048 113.9848 132° Southeast  Level Estimated
03:57AM 46.9428 114.0871 132° Southeast  Level Estimated
03:58AM 46.8808 114.1892 132° Southeast  Level Estimated
03:59AM 46.8186 114.2910 132° Southeast  Level Estimated
04:00AM 46.7563 114.3926 132° Southeast  Level Estimated
04:01AM 46.6940 114.4939 132° Southeast  Level Estimated
04:02AM 46.6315 114.5950 132° Southeast  Level Estimated
04:03AM 46.5690 114.6959 132° Southeast  Level Estimated
04:04AM 46.5063 114.7966 132° Southeast  Level Estimated
04:05AM 46.4436 114.8970 132° Southeast  Level Estimated
04:06AM 46.3808 114.9972 132° Southeast  Level Estimated
04:07AM 46.3179 115.0972 132° Southeast  Level Estimated
04:08AM 46.2549 115.1969 132° Southeast  Level Estimated
04:09AM 46.1919 115.2964 132° Southeast  Level Estimated
04:10AM 46.1287 115.3957 133° Southeast  Level Estimated
04:11AM 46.0655 115.4947 133° Southeast  Level Estimated
04:12AM 46.0022 115.5935 133° Southeast  Level Estimated
04:13AM 45.9387 115.6921 133° Southeast  Level Estimated
04:14AM 45.8753 115.7905 133° Southeast  Level Estimated
04:15AM 45.8117 115.8886 133° Southeast  Level Estimated
04:16AM 45.7480 115.9865 133° Southeast  Level Estimated
04:17AM 45.6843 116.0842 133° Southeast  Level Estimated
04:18AM 45.6204 116.1817 133° Southeast  Level Estimated
04:19AM 45.5565 116.2790 133° Southeast  Level Estimated
04:20AM 45.4925 116.3760 133° Southeast  Level Estimated
04:21AM 45.4285 116.4728 133° Southeast  Level Estimated
04:22AM 45.3643 116.5694 133° Southeast  Level Estimated
04:23AM 45.3001 116.6658 133° Southeast  Level Estimated
04:24AM 45.2357 116.7619 134° Southeast  Level Estimated
04:25AM 45.1713 116.8578 134° Southeast  Level Estimated
04:26AM 45.1069 116.9536 134° Southeast  Level Estimated
04:27AM 45.0423 117.0491 134° Southeast  Level Estimated
04:28AM 44.9777 117.1444 134° Southeast  Level Estimated
04:29AM 44.9129 117.2394 134° Southeast  Level Estimated
04:30AM 44.8481 117.3343 134° Southeast  Level Estimated
04:31AM 44.7833 117.4289 134° Southeast  Level Estimated
04:32AM 44.7183 117.5234 134° Southeast  Level Estimated
04:33AM 44.6533 117.6176 134° Southeast  Level Estimated
04:34AM 44.5882 117.7116 134° Southeast  Level Estimated
04:35AM 44.5230 117.8054 134° Southeast  Level Estimated
04:36AM 44.4577 117.8990 134° Southeast  Level Estimated
04:37AM 44.3924 117.9924 134° Southeast  Level Estimated
04:38AM 44.3270 118.0855 134° Southeast  Level Estimated
04:39AM 44.2615 118.1785 135° Southeast  Level Estimated
04:40AM 44.1959 118.2713 135° Southeast  Level Estimated
04:41AM 44.1303 118.3638 135° Southeast  Level Estimated
04:42AM 44.0646 118.4562 135° Southeast  Level Estimated
04:43AM 43.9988 118.5483 135° Southeast  Level Estimated
04:44AM 43.9329 118.6402 135° Southeast  Level Estimated
04:45AM 43.8670 118.7320 135° Southeast  Level Estimated
04:46AM 43.8010 118.8235 135° Southeast  Level Estimated
04:47AM 43.7349 118.9148 135° Southeast  Level Estimated
04:48AM 43.6688 119.0060 135° Southeast  Level Estimated
04:49AM 43.6026 119.0969 135° Southeast  Level Estimated
04:50AM 43.5363 119.1876 135° Southeast  Level Estimated
04:51AM 43.4699 119.2782 135° Southeast  Level Estimated
04:52AM 43.4034 119.3685 135° Southeast  Level Estimated
04:53AM 43.3369 119.4586 135° Southeast  Level Estimated
04:54AM 43.2704 119.5485 135° Southeast  Level Estimated
04:55AM 43.2037 119.6383 136° Southeast  Level Estimated
04:56AM 43.1370 119.7278 136° Southeast  Level Estimated
04:57AM 43.0702 119.8172 136° Southeast  Level Estimated
04:58AM 43.0033 119.9063 136° Southeast  Level Estimated
04:59AM 42.9364 119.9953 136° Southeast  Level Estimated
05:00AM 42.8694 120.0840 136° Southeast  Level Estimated
05:01AM 42.8023 120.1726 136° Southeast  Level Estimated
05:02AM 42.7352 120.2610 136° Southeast  Level Estimated
05:03AM 42.6680 120.3492 136° Southeast  Level Estimated
05:04AM 42.6007 120.4372 136° Southeast  Level Estimated
05:05AM 42.5334 120.5250 136° Southeast  Level Estimated
05:06AM 42.4660 120.6126 136° Southeast  Level Estimated
05:07AM 42.3985 120.7000 136° Southeast  Level Estimated
05:07AM 37.1350 126.2130 136° Southeast 285 328 8,800  Level FlightAware
05:07AM 37.1310 126.2620 96° East 286 329 8,700 -480 Descending FlightAware
05:08AM 42.3310 120.7873 136° Southeast  Level Estimated
05:08AM 37.1280 126.3010 95° East 286 329 8,400  Level FlightAware
05:08AM 37.1240 126.3420 97° East 286 329 7,900 -480 Descending FlightAware
05:09AM 37.1160 126.4400 96° East 286 329 7,800 -120 Descending FlightAware
05:10AM 37.1120 126.4890 96° East 278 320 7,800  Level FlightAware
05:10AM 37.1090 126.5370 94° East 277 319 7,800 -300 Level FlightAware
05:13AM 37.3046 126.4901 349° North  Level Estimated
05:13AM 37.1120 126.7210 349° North 238 274 7,100  Level FlightAware
05:15AM 37.2693 126.6022 329° Northwest  Level Estimated
05:15AM 37.2250 126.6700 329° Northwest 199 229 5,200  Level FlightAware
05:15AM 37.2530 126.6450 325° Northwest 201 231 4,800 -960 Descending FlightAware
05:16AM 37.2830 126.6190 325° Northwest 201 231 4,000 -1,200 Descending FlightAware
05:16AM 37.2920 126.6100 321° Northwest 201 231 3,800 -840 Descending FlightAware
05:19AM 37.4666 126.4527 324° Northwest  Level Estimated
05:20AM 37.4691 126.4505 324° Northwest  Level Estimated
05:21AM 37.4691 126.4505 335° Northwest  Level Estimated
05:22AM 37.4691 126.4505 335° Northwest  Level Estimated
05:23AM 37.4691 126.4505 335° Northwest  Level Estimated
05:24AM 37.4691 126.4505 335° Northwest  Level Estimated
05:25AM 37.4691 126.4505 335° Northwest  Level Estimated
05:26AM 37.4691 126.4505 335° Northwest  Level Estimated
05:27AM 37.4691 126.4505 335° Northwest  Level Estimated
05:28AM 37.4691 126.4505 335° Northwest  Level Estimated
05:29AM 37.4691 126.4505 335° Northwest  Level Estimated
05:30AM 37.4691 126.4505 335° Northwest  Level Estimated
05:31AM 37.4691 126.4505 335° Northwest  Level Estimated
05:32AM 37.4691 126.4505 335° Northwest  Level Estimated
05:33AM 37.4691 126.4505 335° Northwest  Level Estimated
05:34AM 37.4691 126.4505 335° Northwest  Level Estimated
05:35AM 37.4691 126.4505 335° Northwest  Level Estimated
05:36AM 37.4691 126.4505 335° Northwest  Level Estimated
05:37AM 37.4691 126.4505 335° Northwest  Level Estimated
05:38AM 37.4691 126.4505 335° Northwest  Level Estimated
05:39AM 37.4691 126.4505 335° Northwest  Level Estimated
05:40AM 37.4691 126.4505 335° Northwest  Level Estimated
05:41AM 37.4691 126.4505 335° Northwest  Level Estimated
05:42AM 37.4691 126.4505 335° Northwest  Level Estimated
05:43AM 37.4691 126.4505 335° Northwest  Level Estimated
05:44AM 37.4691 126.4505 335° Northwest  Level Estimated
05:45AM 37.4691 126.4505 335° Northwest  Level Estimated
05:46AM 37.4691 126.4505 335° Northwest  Level Estimated
05:47AM 37.4691 126.4505 335° Northwest  Level Estimated
05:48AM 37.4691 126.4505 335° Northwest  Level Estimated
05:49AM 37.4691 126.4505 335° Northwest  Level Estimated
05:50AM 37.4691 126.4505 335° Northwest  Level Estimated
05:51AM 37.4691 126.4505 335° Northwest  Level Estimated
05:52AM 37.4691 126.4505 335° Northwest  Level Estimated
05:53AM 37.4691 126.4505 335° Northwest  Level Estimated
05:54AM 37.4691 126.4505 335° Northwest  Level Estimated
05:55AM 37.4691 126.4505 335° Northwest  Level Estimated
05:56AM 37.4691 126.4505 335° Northwest  Level Estimated
05:57AM 37.4691 126.4505 335° Northwest  Level Estimated
05:58AM 37.4691 126.4505 335° Northwest  Level Estimated
05:59AM 37.4691 126.4505 335° Northwest  Level Estimated
06:00AM 37.4691 126.4505 335° Northwest  Level Estimated
06:01AM 37.4691 126.4505 335° Northwest  Level Estimated
06:02AM 37.4691 126.4505 335° Northwest  Level Estimated
06:03AM 37.4691 126.4505 335° Northwest  Level Estimated
06:04AM 37.4691 126.4505 335° Northwest  Level Estimated
06:05AM 37.4691 126.4505 335° Northwest  Level Estimated
06:06AM 37.4691 126.4505 335° Northwest  Level Estimated
06:07AM 37.4691 126.4505 335° Northwest  Level Estimated
06:08AM 37.4691 126.4505 335° Northwest  Level Estimated
06:09AM 37.4691 126.4505 335° Northwest  Level Estimated
06:10AM 37.4691 126.4505 335° Northwest  Level Estimated
06:11AM 37.4691 126.4505 335° Northwest  Level Estimated
06:12AM 37.4691 126.4505 335° Northwest  Level Estimated
06:13AM 37.4691 126.4505 335° Northwest  Level Estimated
06:14AM 37.4691 126.4505 335° Northwest  Level Estimated
06:15AM 37.4691 126.4505 335° Northwest  Level Estimated
06:16AM 37.4691 126.4505 335° Northwest  Level Estimated
06:17AM 37.4691 126.4505 335° Northwest  Level Estimated
06:18AM 37.4691 126.4505 335° Northwest  Level Estimated
06:19AM 37.4691 126.4505 335° Northwest  Level Estimated
06:20AM 37.4691 126.4505 335° Northwest  Level Estimated
06:21AM 37.4691 126.4505 335° Northwest  Level Estimated
06:22AM 37.4691 126.4505 335° Northwest  Level Estimated
06:23AM 37.4691 126.4505 335° Northwest  Level Estimated
06:24AM 37.4691 126.4505 335° Northwest  Level Estimated
06:25AM 37.4691 126.4505 335° Northwest  Level Estimated
06:26AM 37.4691 126.4505 335° Northwest  Level Estimated
06:27AM 37.4691 126.4505 335° Northwest  Level Estimated
06:28AM 37.4691 126.4505 335° Northwest  Level Estimated
06:29AM 37.4691 126.4505 335° Northwest  Level Estimated
06:30AM 37.4691 126.4505 335° Northwest  Level Estimated
06:31AM 37.4691 126.4505 335° Northwest  Level Estimated
06:32AM 37.4691 126.4505 335° Northwest  Level Estimated
06:33AM 37.4691 126.4505 335° Northwest  Level Estimated
06:34AM 37.4691 126.4505 335° Northwest  Level Estimated
06:35AM 37.4691 126.4505 335° Northwest  Level Estimated
06:36AM 37.4691 126.4505 335° Northwest  Level Estimated
06:37AM 37.4691 126.4505 335° Northwest  Level Estimated
06:38AM 37.4691 126.4505 335° Northwest  Level Estimated
06:39AM 37.4691 126.4505 335° Northwest  Level Estimated
06:40AM 37.4691 126.4505 335° Northwest  Level Estimated
06:41AM 37.4691 126.4505 335° Northwest  Level Estimated
06:42AM 37.4691 126.4505 335° Northwest  Level Estimated
06:43AM 37.4691 126.4505 335° Northwest  Level Estimated
06:44AM 37.4691 126.4505 335° Northwest  Level Estimated
06:45AM 37.4691 126.4505 335° Northwest  Level Estimated
06:46AM 37.4691 126.4505 335° Northwest  Level Estimated
06:47AM 37.4691 126.4505 335° Northwest  Level Estimated
06:48AM 37.4691 126.4505 335° Northwest  Level Estimated
06:49AM 37.4691 126.4505 335° Northwest  Level Estimated
06:50AM 37.4691 126.4505 335° Northwest  Level Estimated
06:51AM 37.4691 126.4505 335° Northwest  Level Estimated
06:52AM 37.4691 126.4505 335° Northwest  Level Estimated
06:53AM 37.4691 126.4505 335° Northwest  Level Estimated
06:54AM 37.4691 126.4505 335° Northwest  Level Estimated
06:55AM 37.4691 126.4505 335° Northwest  Level Estimated
06:56AM 37.4691 126.4505 335° Northwest  Level Estimated
06:57AM 37.4691 126.4505 335° Northwest  Level Estimated
06:58AM 37.4691 126.4505 335° Northwest  Level Estimated
06:59AM 37.4691 126.4505 335° Northwest  Level Estimated
07:00AM 37.4691 126.4505 335° Northwest  Level Estimated
07:01AM 37.4691 126.4505 335° Northwest  Level Estimated
07:02AM 37.4691 126.4505 335° Northwest  Level Estimated
07:03AM 37.4691 126.4505 335° Northwest  Level Estimated
07:04AM 37.4691 126.4505 335° Northwest  Level Estimated
07:05AM 37.4691 126.4505 335° Northwest  Level Estimated
07:06AM 37.4691 126.4505 335° Northwest  Level Estimated
07:07AM 37.4691 126.4505 335° Northwest  Level Estimated
07:08AM 37.4691 126.4505 335° Northwest  Level Estimated
07:09AM 37.4691 126.4505 335° Northwest  Level Estimated
07:10AM 37.4691 126.4505 335° Northwest  Level Estimated
07:11AM 37.4691 126.4505 335° Northwest  Level Estimated
07:12AM 37.4691 126.4505 335° Northwest  Level Estimated
07:13AM 37.4691 126.4505 335° Northwest  Level Estimated
07:14AM 37.4691 126.4505 335° Northwest  Level Estimated
07:15AM 37.4691 126.4505 335° Northwest  Level Estimated
07:16AM 37.4691 126.4505 335° Northwest  Level Estimated
07:17AM 37.4691 126.4505 335° Northwest  Level Estimated
07:18AM 37.4691 126.4505 335° Northwest  Level Estimated
07:19AM 37.4691 126.4505 335° Northwest  Level Estimated
07:20AM 37.4691 126.4505 335° Northwest  Level Estimated
07:21AM 37.4691 126.4505 335° Northwest  Level Estimated
07:22AM 37.4691 126.4505 335° Northwest  Level Estimated
07:23AM 37.4691 126.4505 335° Northwest  Level Estimated
07:24AM 37.4691 126.4505 335° Northwest  Level Estimated
07:25AM 37.4691 126.4505 335° Northwest  Level Estimated
07:26AM 37.4691 126.4505 335° Northwest  Level Estimated
07:27AM 37.4691 126.4505 335° Northwest  Level Estimated
07:28AM 37.4691 126.4505 335° Northwest  Level Estimated
07:29AM 37.4691 126.4505 335° Northwest  Level Estimated
07:30AM 37.4691 126.4505 335° Northwest  Level Estimated
07:31AM 37.4691 126.4505 335° Northwest  Level Estimated
07:32AM 37.4691 126.4505 335° Northwest  Level Estimated
07:33AM 37.4691 126.4505 335° Northwest  Level Estimated
07:34AM 37.4691 126.4505 335° Northwest  Level Estimated
07:35AM 37.4691 126.4505 335° Northwest  Level Estimated
07:36AM 37.4691 126.4505 335° Northwest  Level Estimated
07:37AM 37.4691 126.4505 335° Northwest  Level Estimated
07:38AM 37.4691 126.4505 335° Northwest  Level Estimated
07:39AM 37.4691 126.4505 335° Northwest  Level Estimated
07:40AM 37.4691 126.4505 335° Northwest  Level Estimated
07:41AM 37.4691 126.4505 335° Northwest  Level Estimated
07:42AM 37.4691 126.4505 335° Northwest  Level Estimated
07:43AM 37.4691 126.4505 335° Northwest  Level Estimated
07:44AM 37.4691 126.4505 335° Northwest  Level Estimated
07:45AM 37.4691 126.4505 335° Northwest  Level Estimated
07:46AM 37.4691 126.4505 335° Northwest  Level Estimated
07:47AM 37.4691 126.4505 335° Northwest  Level Estimated
07:48AM 37.4691 126.4505 335° Northwest  Level Estimated
07:49AM 37.4691 126.4505 335° Northwest  Level Estimated
07:50AM 37.4691 126.4505 335° Northwest  Level Estimated
07:51AM 37.4691 126.4505 335° Northwest  Level Estimated
07:52AM 37.4691 126.4505 335° Northwest  Level Estimated
07:53AM 37.4691 126.4505 335° Northwest  Level Estimated
07:54AM 37.4691 126.4505 335° Northwest  Level Estimated
07:55AM 37.4691 126.4505 335° Northwest  Level Estimated
07:56AM 37.4691 126.4505 335° Northwest  Level Estimated
07:57AM 37.4691 126.4505 335° Northwest  Level Estimated
07:58AM 37.4691 126.4505 335° Northwest  Level Estimated
07:59AM 37.4691 126.4505 335° Northwest  Level Estimated
08:00AM 37.4691 126.4505 335° Northwest  Level Estimated
08:01AM 37.4691 126.4505 335° Northwest  Level Estimated
08:02AM 37.4691 126.4505 335° Northwest  Level Estimated
08:03AM 37.4691 126.4505 335° Northwest  Level Estimated
08:04AM 37.4691 126.4505 335° Northwest  Level Estimated
08:05AM 37.4691 126.4505 335° Northwest  Level Estimated
08:06AM 37.4691 126.4505 335° Northwest  Level Estimated
08:07AM 37.4691 126.4505 335° Northwest  Level Estimated
08:08AM 37.4691 126.4505 335° Northwest  Level Estimated
08:09AM 37.4691 126.4505 335° Northwest  Level Estimated
08:10AM 37.4691 126.4505 335° Northwest  Level Estimated
08:11AM 37.4691 126.4505 335° Northwest  Level Estimated
08:12AM 37.4691 126.4505 335° Northwest  Level Estimated
08:13AM 37.4691 126.4505 335° Northwest  Level Estimated
08:14AM 37.4691 126.4505 335° Northwest  Level Estimated
08:15AM 37.4691 126.4505 335° Northwest  Level Estimated
08:16AM 37.4691 126.4505 335° Northwest  Level Estimated
08:17AM 37.4691 126.4505 335° Northwest  Level Estimated
08:18AM 37.4691 126.4505 335° Northwest  Level Estimated
08:19AM 37.4691 126.4505 335° Northwest  Level Estimated
08:20AM 37.4691 126.4505 335° Northwest  Level Estimated
08:21AM 37.4691 126.4505 335° Northwest  Level Estimated
08:22AM 37.4691 126.4505 335° Northwest  Level Estimated
08:23AM 37.4691 126.4505 335° Northwest  Level Estimated
08:24AM 37.4691 126.4505 335° Northwest  Level Estimated
08:25AM 37.4691 126.4505 335° Northwest  Level Estimated
08:26AM 37.4691 126.4505 335° Northwest  Level Estimated
08:27AM 37.4691 126.4505 335° Northwest  Level Estimated
08:28AM 37.4691 126.4505 335° Northwest  Level Estimated
08:29AM 37.4691 126.4505 335° Northwest  Level Estimated
08:30AM 37.4691 126.4505 335° Northwest  Level Estimated
08:31AM 37.4691 126.4505 335° Northwest  Level Estimated
08:32AM 37.4691 126.4505 335° Northwest  Level Estimated
08:33AM 37.4691 126.4505 335° Northwest  Level Estimated
08:34AM 37.4691 126.4505 335° Northwest  Level Estimated
08:35AM 37.4691 126.4505 335° Northwest  Level Estimated
08:36AM 37.4691 126.4505 335° Northwest  Level Estimated
08:37AM 37.4691 126.4505 335° Northwest  Level Estimated
08:38AM 37.4691 126.4505 335° Northwest  Level Estimated
08:39AM 37.4691 126.4505 335° Northwest  Level Estimated
08:40AM 37.4691 126.4505 335° Northwest  Level Estimated
08:41AM 37.4691 126.4505 335° Northwest  Level Estimated
08:42AM 37.4691 126.4505 335° Northwest  Level Estimated
08:43AM 37.4691 126.4505 335° Northwest  Level Estimated
08:44AM 37.4691 126.4505 335° Northwest  Level Estimated
08:45AM 37.4691 126.4505 335° Northwest  Level Estimated
08:46AM 37.4691 126.4505 335° Northwest  Level Estimated
08:47AM 37.4691 126.4505 335° Northwest  Level Estimated
08:48AM 37.4691 126.4505 335° Northwest  Level Estimated
08:49AM 37.4691 126.4505 335° Northwest  Level Estimated
08:50AM 37.4691 126.4505 335° Northwest  Level Estimated
08:51AM 37.4691 126.4505 335° Northwest  Level Estimated
08:52AM 37.4691 126.4505 335° Northwest  Level Estimated
08:53AM 37.4691 126.4505 335° Northwest  Level Estimated
08:54AM 37.4691 126.4505 335° Northwest  Level Estimated
08:55AM 37.4691 126.4505 335° Northwest  Level Estimated
08:56AM 37.4691 126.4505 335° Northwest  Level Estimated
08:57AM 37.4691 126.4505 335° Northwest  Level Estimated
08:58AM 37.4691 126.4505 335° Northwest  Level Estimated
08:59AM 37.4691 126.4505 335° Northwest  Level Estimated
09:00AM 37.4691 126.4505 335° Northwest  Level Estimated
09:01AM 37.4691 126.4505 335° Northwest  Level Estimated
09:02AM 37.4691 126.4505 335° Northwest  Level Estimated
09:03AM 37.4691 126.4505 335° Northwest  Level Estimated
09:04AM 37.4691 126.4505 335° Northwest  Level Estimated
09:05AM 37.4691 126.4505 335° Northwest  Level Estimated
09:06AM 37.4691 126.4505 335° Northwest  Level Estimated
09:07AM 37.4691 126.4505 335° Northwest  Level Estimated
09:08AM 37.4691 126.4505 335° Northwest  Level Estimated
09:09AM 37.4691 126.4505 335° Northwest  Level Estimated
09:10AM 37.4691 126.4505 335° Northwest  Level Estimated
09:11AM 37.4691 126.4505 335° Northwest  Level Estimated
09:12AM 37.4691 126.4505 335° Northwest  Level Estimated
09:13AM 37.4691 126.4505 335° Northwest  Level Estimated
09:14AM 37.4691 126.4505 335° Northwest  Level Estimated
09:15AM 37.4691 126.4505 335° Northwest  Level Estimated
09:16AM 37.4691 126.4505 335° Northwest  Level Estimated
09:17AM 37.4691 126.4505 335° Northwest  Level Estimated
09:18AM 37.4691 126.4505 335° Northwest  Level Estimated
09:19AM 37.4691 126.4505 335° Northwest  Level Estimated
09:20AM 37.4691 126.4505 335° Northwest  Level Estimated
09:21AM 37.4691 126.4505 335° Northwest  Level Estimated
09:22AM 37.4691 126.4505 335° Northwest  Level Estimated
09:23AM 37.4691 126.4505 335° Northwest  Level Estimated
09:24AM 37.4691 126.4505 335° Northwest  Level Estimated
09:25AM 37.4691 126.4505 335° Northwest  Level Estimated
09:26AM 37.4691 126.4505 335° Northwest  Level Estimated
09:27AM 37.4691 126.4505 335° Northwest  Level Estimated
09:28AM 37.4691 126.4505 335° Northwest  Level Estimated
09:29AM 37.4691 126.4505 335° Northwest  Level Estimated
09:30AM 37.4691 126.4505 335° Northwest  Level Estimated
09:31AM 37.4691 126.4505 335° Northwest  Level Estimated
09:32AM 37.4691 126.4505 335° Northwest  Level Estimated
09:33AM 37.4691 126.4505 335° Northwest  Level Estimated
09:34AM 37.4691 126.4505 335° Northwest  Level Estimated
09:35AM 37.4691 126.4505 335° Northwest  Level Estimated
09:36AM 37.4691 126.4505 335° Northwest  Level Estimated
09:37AM 37.4691 126.4505 335° Northwest  Level Estimated
09:38AM 37.4691 126.4505 335° Northwest  Level Estimated
09:39AM 37.4691 126.4505 335° Northwest  Level Estimated
09:40AM 37.4691 126.4505 335° Northwest  Level Estimated
09:41AM 37.4691 126.4505 335° Northwest  Level Estimated
09:42AM 37.4691 126.4505 335° Northwest  Level Estimated
09:43AM 37.4691 126.4505 335° Northwest  Level Estimated
09:44AM 37.4691 126.4505 335° Northwest  Level Estimated
09:45AM 37.4691 126.4505 335° Northwest  Level Estimated
09:46AM 37.4691 126.4505 335° Northwest  Level Estimated
09:47AM 37.4691 126.4505 335° Northwest  Level Estimated
09:48AM 37.4691 126.4505 335° Northwest  Level Estimated
09:49AM 37.4691 126.4505 335° Northwest  Level Estimated
09:50AM 37.4691 126.4505 335° Northwest  Level Estimated
09:51AM 37.4691 126.4505 335° Northwest  Level Estimated
09:52AM 37.4691 126.4505 335° Northwest  Level Estimated
09:53AM 37.4691 126.4505 335° Northwest  Level Estimated
09:54AM 37.4691 126.4505 335° Northwest  Level Estimated
09:55AM 37.4691 126.4505 335° Northwest  Level Estimated
09:56AM 37.4691 126.4505 335° Northwest  Level Estimated